sensor_id;sensor_type;location;lat;lon;timestamp;P1;durP1;ratioP1;P2;durP2;ratioP2
52508;SDS011;38420;53.150;6.370;2022-09-28T00:01:59;10.50;;;6.38;;
52508;SDS011;38420;53.150;6.370;2022-09-28T00:04:25;10.40;;;6.03;;
52508;SDS011;38420;53.150;6.370;2022-09-28T00:06:50;10.45;;;6.72;;
52508;SDS011;38420;53.150;6.370;2022-09-28T00:09:16;10.85;;;6.97;;
52508;SDS011;38420;53.150;6.370;2022-09-28T00:11:42;12.50;;;6.53;;
52508;SDS011;38420;53.150;6.370;2022-09-28T00:14:10;13.55;;;6.63;;
52508;SDS011;38420;53.150;6.370;2022-09-28T00:16:39;9.80;;;6.07;;
52508;SDS011;38420;53.150;6.370;2022-09-28T00:19:07;11.00;;;7.18;;
52508;SDS011;38420;53.150;6.370;2022-09-28T00:21:35;10.35;;;6.20;;
52508;SDS011;38420;53.150;6.370;2022-09-28T00:24:03;13.05;;;7.00;;
52508;SDS011;38420;53.150;6.370;2022-09-28T00:29:15;13.27;;;7.07;;
52508;SDS011;38420;53.150;6.370;2022-09-28T00:31:42;10.52;;;7.10;;
52508;SDS011;38420;53.150;6.370;2022-09-28T00:34:08;10.05;;;7.07;;
52508;SDS011;38420;53.150;6.370;2022-09-28T00:36:33;13.10;;;7.60;;
52508;SDS011;38420;53.150;6.370;2022-09-28T00:39:02;12.45;;;6.97;;
52508;SDS011;38420;53.150;6.370;2022-09-28T00:41:30;10.73;;;7.65;;
52508;SDS011;38420;53.150;6.370;2022-09-28T00:46:46;10.82;;;7.15;;
52508;SDS011;38420;53.150;6.370;2022-09-28T00:49:14;12.82;;;6.82;;
52508;SDS011;38420;53.150;6.370;2022-09-28T00:51:42;12.23;;;6.93;;
52508;SDS011;38420;53.150;6.370;2022-09-28T00:54:09;10.30;;;7.22;;
52508;SDS011;38420;53.150;6.370;2022-09-28T00:56:39;11.55;;;7.15;;
52508;SDS011;38420;53.150;6.370;2022-09-28T00:59:08;11.60;;;7.60;;
52508;SDS011;38420;53.150;6.370;2022-09-28T01:01:33;12.88;;;7.50;;
52508;SDS011;38420;53.150;6.370;2022-09-28T01:04:00;11.57;;;6.68;;
52508;SDS011;38420;53.150;6.370;2022-09-28T01:06:27;10.88;;;7.25;;
52508;SDS011;38420;53.150;6.370;2022-09-28T01:09:00;11.00;;;7.97;;
52508;SDS011;38420;53.150;6.370;2022-09-28T01:11:32;10.43;;;8.23;;
52508;SDS011;38420;53.150;6.370;2022-09-28T01:14:00;14.77;;;8.35;;
52508;SDS011;38420;53.150;6.370;2022-09-28T01:16:32;14.82;;;8.48;;
52508;SDS011;38420;53.150;6.370;2022-09-28T01:19:32;12.73;;;8.35;;
52508;SDS011;38420;53.150;6.370;2022-09-28T01:24:53;15.23;;;8.90;;
52508;SDS011;38420;53.150;6.370;2022-09-28T01:27:31;12.02;;;8.90;;
52508;SDS011;38420;53.150;6.370;2022-09-28T01:30:19;14.93;;;9.10;;
52508;SDS011;38420;53.150;6.370;2022-09-28T01:33:01;14.57;;;9.20;;
52508;SDS011;38420;53.150;6.370;2022-09-28T01:35:35;14.60;;;8.68;;
52508;SDS011;38420;53.150;6.370;2022-09-28T01:38:33;13.90;;;9.15;;
52508;SDS011;38420;53.150;6.370;2022-09-28T01:41:10;17.35;;;9.98;;
52508;SDS011;38420;53.150;6.370;2022-09-28T01:43:38;18.23;;;9.68;;
52508;SDS011;38420;53.150;6.370;2022-09-28T01:46:13;14.65;;;9.13;;
52508;SDS011;38420;53.150;6.370;2022-09-28T01:51:39;14.75;;;9.40;;
52508;SDS011;38420;53.150;6.370;2022-09-28T01:54:16;18.25;;;10.30;;
52508;SDS011;38420;53.150;6.370;2022-09-28T01:56:57;17.33;;;10.57;;
52508;SDS011;38420;53.150;6.370;2022-09-28T01:59:32;16.73;;;9.85;;
52508;SDS011;38420;53.150;6.370;2022-09-28T02:02:02;16.30;;;10.40;;
52508;SDS011;38420;53.150;6.370;2022-09-28T02:04:34;19.20;;;10.10;;
52508;SDS011;38420;53.150;6.370;2022-09-28T02:07:07;18.40;;;11.43;;
52508;SDS011;38420;53.150;6.370;2022-09-28T02:09:43;19.63;;;10.77;;
52508;SDS011;38420;53.150;6.370;2022-09-28T02:12:35;18.33;;;10.65;;
52508;SDS011;38420;53.150;6.370;2022-09-28T02:15:12;16.25;;;10.50;;
52508;SDS011;38420;53.150;6.370;2022-09-28T02:17:44;17.73;;;10.77;;
52508;SDS011;38420;53.150;6.370;2022-09-28T02:20:10;15.55;;;11.10;;
52508;SDS011;38420;53.150;6.370;2022-09-28T02:30:26;19.40;;;12.20;;
52508;SDS011;38420;53.150;6.370;2022-09-28T02:32:54;20.30;;;12.82;;
52508;SDS011;38420;53.150;6.370;2022-09-28T02:35:33;19.15;;;11.55;;
52508;SDS011;38420;53.150;6.370;2022-09-28T02:37:59;22.15;;;12.13;;
52508;SDS011;38420;53.150;6.370;2022-09-28T02:40:28;16.38;;;11.23;;
52508;SDS011;38420;53.150;6.370;2022-09-28T02:46:22;18.95;;;11.95;;
52508;SDS011;38420;53.150;6.370;2022-09-28T02:48:55;21.63;;;14.02;;
52508;SDS011;38420;53.150;6.370;2022-09-28T02:57:30;23.60;;;12.77;;
52508;SDS011;38420;53.150;6.370;2022-09-28T03:00:16;17.92;;;11.82;;
52508;SDS011;38420;53.150;6.370;2022-09-28T03:05:21;20.98;;;13.30;;
52508;SDS011;38420;53.150;6.370;2022-09-28T03:08:27;20.73;;;12.02;;
52508;SDS011;38420;53.150;6.370;2022-09-28T03:11:00;18.77;;;12.48;;
52508;SDS011;38420;53.150;6.370;2022-09-28T03:13:29;21.80;;;12.55;;
52508;SDS011;38420;53.150;6.370;2022-09-28T03:16:17;19.90;;;13.52;;
52508;SDS011;38420;53.150;6.370;2022-09-28T03:18:42;19.33;;;12.75;;
52508;SDS011;38420;53.150;6.370;2022-09-28T03:21:12;19.58;;;13.15;;
52508;SDS011;38420;53.150;6.370;2022-09-28T03:23:39;24.80;;;13.27;;
52508;SDS011;38420;53.150;6.370;2022-09-28T03:26:11;24.67;;;12.40;;
52508;SDS011;38420;53.150;6.370;2022-09-28T03:28:38;18.38;;;11.90;;
52508;SDS011;38420;53.150;6.370;2022-09-28T03:31:04;28.65;;;14.35;;
52508;SDS011;38420;53.150;6.370;2022-09-28T03:33:30;63.17;;;17.10;;
52508;SDS011;38420;53.150;6.370;2022-09-28T03:35:55;26.17;;;13.35;;
52508;SDS011;38420;53.150;6.370;2022-09-28T03:38:21;69.32;;;16.70;;
52508;SDS011;38420;53.150;6.370;2022-09-28T03:43:22;72.47;;;16.08;;
52508;SDS011;38420;53.150;6.370;2022-09-28T03:45:55;31.50;;;14.32;;
52508;SDS011;38420;53.150;6.370;2022-09-28T03:48:28;65.63;;;15.60;;
52508;SDS011;38420;53.150;6.370;2022-09-28T03:50:56;40.40;;;13.07;;
52508;SDS011;38420;53.150;6.370;2022-09-28T03:53:23;70.65;;;14.20;;
52508;SDS011;38420;53.150;6.370;2022-09-28T03:55:49;38.15;;;13.20;;
52508;SDS011;38420;53.150;6.370;2022-09-28T03:58:20;43.85;;;12.43;;
52508;SDS011;38420;53.150;6.370;2022-09-28T04:00:46;68.35;;;16.60;;
52508;SDS011;38420;53.150;6.370;2022-09-28T04:03:12;29.48;;;12.45;;
52508;SDS011;38420;53.150;6.370;2022-09-28T04:05:38;44.50;;;12.20;;
52508;SDS011;38420;53.150;6.370;2022-09-28T04:08:03;100.97;;;19.27;;
52508;SDS011;38420;53.150;6.370;2022-09-28T04:10:29;30.55;;;11.82;;
52508;SDS011;38420;53.150;6.370;2022-09-28T04:12:55;25.85;;;11.73;;
52508;SDS011;38420;53.150;6.370;2022-09-28T04:15:22;49.83;;;13.30;;
52508;SDS011;38420;53.150;6.370;2022-09-28T04:17:48;35.58;;;12.90;;
52508;SDS011;38420;53.150;6.370;2022-09-28T04:20:14;37.08;;;12.02;;
52508;SDS011;38420;53.150;6.370;2022-09-28T04:22:40;46.00;;;13.40;;
52508;SDS011;38420;53.150;6.370;2022-09-28T04:25:06;31.80;;;13.05;;
52508;SDS011;38420;53.150;6.370;2022-09-28T04:27:31;17.85;;;11.65;;
52508;SDS011;38420;53.150;6.370;2022-09-28T04:30:16;19.33;;;12.25;;
52508;SDS011;38420;53.150;6.370;2022-09-28T04:32:42;27.10;;;13.25;;
52508;SDS011;38420;53.150;6.370;2022-09-28T04:35:10;17.33;;;11.82;;
52508;SDS011;38420;53.150;6.370;2022-09-28T04:37:38;22.23;;;12.80;;
52508;SDS011;38420;53.150;6.370;2022-09-28T04:40:04;17.17;;;11.82;;
52508;SDS011;38420;53.150;6.370;2022-09-28T04:42:30;18.73;;;12.48;;
52508;SDS011;38420;53.150;6.370;2022-09-28T04:44:56;17.63;;;12.52;;
52508;SDS011;38420;53.150;6.370;2022-09-28T04:47:22;19.73;;;11.98;;
52508;SDS011;38420;53.150;6.370;2022-09-28T04:49:49;19.60;;;12.05;;
52508;SDS011;38420;53.150;6.370;2022-09-28T04:52:14;14.55;;;11.10;;
52508;SDS011;38420;53.150;6.370;2022-09-28T04:54:40;17.38;;;11.70;;
52508;SDS011;38420;53.150;6.370;2022-09-28T04:57:06;18.25;;;11.88;;
52508;SDS011;38420;53.150;6.370;2022-09-28T04:59:31;18.85;;;12.30;;
52508;SDS011;38420;53.150;6.370;2022-09-28T05:01:58;16.10;;;11.23;;
52508;SDS011;38420;53.150;6.370;2022-09-28T05:04:23;15.75;;;11.65;;
52508;SDS011;38420;53.150;6.370;2022-09-28T05:06:49;19.50;;;11.63;;
52508;SDS011;38420;53.150;6.370;2022-09-28T05:09:15;16.63;;;11.40;;
52508;SDS011;38420;53.150;6.370;2022-09-28T05:11:40;17.02;;;10.82;;
52508;SDS011;38420;53.150;6.370;2022-09-28T05:14:06;18.60;;;12.25;;
52508;SDS011;38420;53.150;6.370;2022-09-28T05:16:32;17.42;;;11.65;;
52508;SDS011;38420;53.150;6.370;2022-09-28T05:18:58;18.02;;;12.70;;
52508;SDS011;38420;53.150;6.370;2022-09-28T05:21:24;16.05;;;11.10;;
52508;SDS011;38420;53.150;6.370;2022-09-28T05:23:51;19.98;;;12.35;;
52508;SDS011;38420;53.150;6.370;2022-09-28T05:26:20;18.67;;;12.13;;
52508;SDS011;38420;53.150;6.370;2022-09-28T05:28:46;18.63;;;11.57;;
52508;SDS011;38420;53.150;6.370;2022-09-28T05:31:12;24.73;;;13.00;;
52508;SDS011;38420;53.150;6.370;2022-09-28T05:33:38;18.33;;;12.13;;
52508;SDS011;38420;53.150;6.370;2022-09-28T05:36:03;20.23;;;13.38;;
52508;SDS011;38420;53.150;6.370;2022-09-28T05:38:32;18.23;;;12.50;;
52508;SDS011;38420;53.150;6.370;2022-09-28T05:40:58;19.83;;;13.07;;
52508;SDS011;38420;53.150;6.370;2022-09-28T05:43:23;17.90;;;12.30;;
52508;SDS011;38420;53.150;6.370;2022-09-28T05:45:49;19.02;;;12.80;;
52508;SDS011;38420;53.150;6.370;2022-09-28T05:48:15;17.42;;;12.20;;
52508;SDS011;38420;53.150;6.370;2022-09-28T05:50:40;18.05;;;12.88;;
52508;SDS011;38420;53.150;6.370;2022-09-28T05:53:07;19.95;;;12.82;;
52508;SDS011;38420;53.150;6.370;2022-09-28T05:55:34;17.80;;;11.73;;
52508;SDS011;38420;53.150;6.370;2022-09-28T05:58:01;19.60;;;12.15;;
52508;SDS011;38420;53.150;6.370;2022-09-28T06:00:29;19.45;;;13.48;;
52508;SDS011;38420;53.150;6.370;2022-09-28T06:02:56;21.58;;;12.82;;
52508;SDS011;38420;53.150;6.370;2022-09-28T06:05:24;20.58;;;13.35;;
52508;SDS011;38420;53.150;6.370;2022-09-28T06:07:51;20.58;;;14.38;;
52508;SDS011;38420;53.150;6.370;2022-09-28T06:10:18;18.38;;;12.50;;
52508;SDS011;38420;53.150;6.370;2022-09-28T06:12:44;21.92;;;12.88;;
52508;SDS011;38420;53.150;6.370;2022-09-28T06:15:11;19.55;;;12.73;;
52508;SDS011;38420;53.150;6.370;2022-09-28T06:17:38;20.60;;;13.52;;
52508;SDS011;38420;53.150;6.370;2022-09-28T06:20:03;21.85;;;13.23;;
52508;SDS011;38420;53.150;6.370;2022-09-28T06:22:29;20.63;;;13.90;;
52508;SDS011;38420;53.150;6.370;2022-09-28T06:24:55;19.23;;;13.02;;
52508;SDS011;38420;53.150;6.370;2022-09-28T06:27:20;21.10;;;13.88;;
52508;SDS011;38420;53.150;6.370;2022-09-28T06:29:46;19.83;;;13.07;;
52508;SDS011;38420;53.150;6.370;2022-09-28T06:32:11;21.60;;;13.63;;
52508;SDS011;38420;53.150;6.370;2022-09-28T06:34:38;21.42;;;14.70;;
52508;SDS011;38420;53.150;6.370;2022-09-28T06:37:03;20.50;;;13.50;;
52508;SDS011;38420;53.150;6.370;2022-09-28T06:39:29;21.33;;;13.45;;
52508;SDS011;38420;53.150;6.370;2022-09-28T06:41:54;19.35;;;12.80;;
52508;SDS011;38420;53.150;6.370;2022-09-28T06:44:20;19.00;;;13.15;;
52508;SDS011;38420;53.150;6.370;2022-09-28T06:46:46;24.35;;;14.18;;
52508;SDS011;38420;53.150;6.370;2022-09-28T06:49:11;21.85;;;15.50;;
52508;SDS011;38420;53.150;6.370;2022-09-28T06:51:38;22.27;;;14.57;;
52508;SDS011;38420;53.150;6.370;2022-09-28T06:54:03;21.08;;;14.43;;
52508;SDS011;38420;53.150;6.370;2022-09-28T06:56:29;115.10;;;69.88;;
52508;SDS011;38420;53.150;6.370;2022-09-28T06:58:54;27.27;;;17.05;;
52508;SDS011;38420;53.150;6.370;2022-09-28T07:01:20;22.50;;;16.55;;
52508;SDS011;38420;53.150;6.370;2022-09-28T07:03:45;23.40;;;16.63;;
52508;SDS011;38420;53.150;6.370;2022-09-28T07:06:11;22.00;;;15.18;;
52508;SDS011;38420;53.150;6.370;2022-09-28T07:08:37;24.38;;;15.80;;
52508;SDS011;38420;53.150;6.370;2022-09-28T07:11:05;25.55;;;15.25;;
52508;SDS011;38420;53.150;6.370;2022-09-28T07:13:31;38.45;;;30.58;;
52508;SDS011;38420;53.150;6.370;2022-09-28T07:15:58;25.15;;;15.45;;
52508;SDS011;38420;53.150;6.370;2022-09-28T07:18:24;20.20;;;14.13;;
52508;SDS011;38420;53.150;6.370;2022-09-28T07:20:50;30.75;;;22.95;;
52508;SDS011;38420;53.150;6.370;2022-09-28T07:23:16;21.60;;;15.50;;
52508;SDS011;38420;53.150;6.370;2022-09-28T07:25:43;20.55;;;13.43;;
52508;SDS011;38420;53.150;6.370;2022-09-28T07:28:11;19.35;;;13.55;;
52508;SDS011;38420;53.150;6.370;2022-09-28T07:30:37;20.50;;;13.15;;
52508;SDS011;38420;53.150;6.370;2022-09-28T07:33:04;22.23;;;14.13;;
52508;SDS011;38420;53.150;6.370;2022-09-28T07:35:31;19.17;;;13.60;;
52508;SDS011;38420;53.150;6.370;2022-09-28T07:38:00;18.45;;;11.90;;
52508;SDS011;38420;53.150;6.370;2022-09-28T07:40:28;18.02;;;11.73;;
52508;SDS011;38420;53.150;6.370;2022-09-28T07:43:13;17.05;;;12.00;;
52508;SDS011;38420;53.150;6.370;2022-09-28T07:45:42;20.13;;;13.63;;
52508;SDS011;38420;53.150;6.370;2022-09-28T07:48:07;18.63;;;12.10;;
52508;SDS011;38420;53.150;6.370;2022-09-28T07:50:33;16.88;;;10.70;;
52508;SDS011;38420;53.150;6.370;2022-09-28T07:52:58;18.95;;;12.70;;
52508;SDS011;38420;53.150;6.370;2022-09-28T07:55:27;17.35;;;11.75;;
52508;SDS011;38420;53.150;6.370;2022-09-28T07:57:54;15.82;;;11.02;;
52508;SDS011;38420;53.150;6.370;2022-09-28T08:00:20;20.73;;;16.33;;
52508;SDS011;38420;53.150;6.370;2022-09-28T08:02:46;17.52;;;11.82;;
52508;SDS011;38420;53.150;6.370;2022-09-28T08:05:12;17.55;;;11.73;;
52508;SDS011;38420;53.150;6.370;2022-09-28T08:07:38;16.90;;;12.98;;
52508;SDS011;38420;53.150;6.370;2022-09-28T08:10:04;20.65;;;11.50;;
52508;SDS011;38420;53.150;6.370;2022-09-28T08:12:29;15.85;;;11.20;;
52508;SDS011;38420;53.150;6.370;2022-09-28T08:14:55;17.15;;;10.68;;
52508;SDS011;38420;53.150;6.370;2022-09-28T08:17:21;18.15;;;11.00;;
52508;SDS011;38420;53.150;6.370;2022-09-28T08:19:46;13.98;;;9.15;;
52508;SDS011;38420;53.150;6.370;2022-09-28T08:22:31;15.63;;;7.93;;
52508;SDS011;38420;53.150;6.370;2022-09-28T08:24:57;11.10;;;7.50;;
52508;SDS011;38420;53.150;6.370;2022-09-28T08:27:22;8.95;;;7.18;;
52508;SDS011;38420;53.150;6.370;2022-09-28T08:29:48;9.95;;;6.53;;
52508;SDS011;38420;53.150;6.370;2022-09-28T08:32:13;9.20;;;6.72;;
52508;SDS011;38420;53.150;6.370;2022-09-28T08:34:40;8.45;;;6.00;;
52508;SDS011;38420;53.150;6.370;2022-09-28T08:37:06;8.05;;;4.93;;
52508;SDS011;38420;53.150;6.370;2022-09-28T08:39:33;8.35;;;5.15;;
52508;SDS011;38420;53.150;6.370;2022-09-28T08:44:57;5.68;;;3.63;;
52508;SDS011;38420;53.150;6.370;2022-09-28T08:47:36;5.30;;;4.28;;
52508;SDS011;38420;53.150;6.370;2022-09-28T08:50:49;6.13;;;3.50;;
52508;SDS011;38420;53.150;6.370;2022-09-28T08:55:51;4.85;;;3.00;;
52508;SDS011;38420;53.150;6.370;2022-09-28T08:58:21;5.13;;;3.17;;
52508;SDS011;38420;53.150;6.370;2022-09-28T09:00:50;3.55;;;2.80;;
52508;SDS011;38420;53.150;6.370;2022-09-28T09:03:18;4.40;;;3.25;;
52508;SDS011;38420;53.150;6.370;2022-09-28T09:05:56;3.80;;;2.83;;
52508;SDS011;38420;53.150;6.370;2022-09-28T09:13:40;2.30;;;0.90;;
52508;SDS011;38420;53.150;6.370;2022-09-28T09:19:09;2.38;;;1.10;;
52508;SDS011;38420;53.150;6.370;2022-09-28T09:21:57;2.97;;;1.05;;
52508;SDS011;38420;53.150;6.370;2022-09-28T09:27:07;2.42;;;0.90;;
52508;SDS011;38420;53.150;6.370;2022-09-28T09:30:03;2.40;;;1.30;;
52508;SDS011;38420;53.150;6.370;2022-09-28T09:32:34;4.03;;;0.70;;
52508;SDS011;38420;53.150;6.370;2022-09-28T09:40:58;1.80;;;1.20;;
52508;SDS011;38420;53.150;6.370;2022-09-28T09:51:20;3.30;;;1.13;;
52508;SDS011;38420;53.150;6.370;2022-09-28T09:54:00;2.85;;;0.95;;
52508;SDS011;38420;53.150;6.370;2022-09-28T09:59:07;4.55;;;0.82;;
52508;SDS011;38420;53.150;6.370;2022-09-28T10:01:38;4.47;;;1.10;;
52508;SDS011;38420;53.150;6.370;2022-09-28T10:04:07;2.97;;;0.93;;
52508;SDS011;38420;53.150;6.370;2022-09-28T10:06:41;1.60;;;1.00;;
52508;SDS011;38420;53.150;6.370;2022-09-28T10:09:24;2.33;;;1.05;;
52508;SDS011;38420;53.150;6.370;2022-09-28T10:11:52;1.85;;;0.93;;
52508;SDS011;38420;53.150;6.370;2022-09-28T10:14:19;2.53;;;1.02;;
52508;SDS011;38420;53.150;6.370;2022-09-28T10:16:50;3.00;;;1.10;;
52508;SDS011;38420;53.150;6.370;2022-09-28T10:19:18;3.65;;;1.25;;
52508;SDS011;38420;53.150;6.370;2022-09-28T10:21:46;2.50;;;1.08;;
52508;SDS011;38420;53.150;6.370;2022-09-28T10:27:06;4.55;;;0.77;;
52508;SDS011;38420;53.150;6.370;2022-09-28T10:29:57;1.52;;;0.70;;
52508;SDS011;38420;53.150;6.370;2022-09-28T10:32:36;2.45;;;0.73;;
52508;SDS011;38420;53.150;6.370;2022-09-28T10:38:06;2.13;;;0.82;;
52508;SDS011;38420;53.150;6.370;2022-09-28T10:40:49;1.95;;;0.50;;
52508;SDS011;38420;53.150;6.370;2022-09-28T10:43:23;1.77;;;0.70;;
52508;SDS011;38420;53.150;6.370;2022-09-28T10:46:13;1.80;;;0.47;;
52508;SDS011;38420;53.150;6.370;2022-09-28T10:48:49;4.47;;;1.40;;
52508;SDS011;38420;53.150;6.370;2022-09-28T10:51:18;0.80;;;0.40;;
52508;SDS011;38420;53.150;6.370;2022-09-28T10:53:59;1.70;;;0.75;;
52508;SDS011;38420;53.150;6.370;2022-09-28T10:56:27;1.58;;;0.60;;
52508;SDS011;38420;53.150;6.370;2022-09-28T10:58:59;1.35;;;0.65;;
52508;SDS011;38420;53.150;6.370;2022-09-28T11:01:27;1.02;;;0.57;;
52508;SDS011;38420;53.150;6.370;2022-09-28T11:04:03;2.35;;;0.63;;
52508;SDS011;38420;53.150;6.370;2022-09-28T11:06:35;2.15;;;0.70;;
52508;SDS011;38420;53.150;6.370;2022-09-28T11:09:03;0.98;;;0.45;;
52508;SDS011;38420;53.150;6.370;2022-09-28T11:11:39;1.77;;;0.85;;
52508;SDS011;38420;53.150;6.370;2022-09-28T11:14:16;1.77;;;0.65;;
52508;SDS011;38420;53.150;6.370;2022-09-28T11:17:24;1.85;;;0.50;;
52508;SDS011;38420;53.150;6.370;2022-09-28T11:22:50;3.17;;;0.60;;
52508;SDS011;38420;53.150;6.370;2022-09-28T11:32:48;5.75;;;0.50;;
52508;SDS011;38420;53.150;6.370;2022-09-28T11:35:16;3.20;;;0.90;;
52508;SDS011;38420;53.150;6.370;2022-09-28T11:40:45;3.80;;;0.80;;
52508;SDS011;38420;53.150;6.370;2022-09-28T11:46:04;1.48;;;0.60;;
52508;SDS011;38420;53.150;6.370;2022-09-28T11:48:50;1.52;;;0.80;;
52508;SDS011;38420;53.150;6.370;2022-09-28T11:51:22;2.00;;;0.80;;
52508;SDS011;38420;53.150;6.370;2022-09-28T11:53:55;2.03;;;0.68;;
52508;SDS011;38420;53.150;6.370;2022-09-28T11:58:54;3.97;;;0.60;;
52508;SDS011;38420;53.150;6.370;2022-09-28T12:04:20;2.97;;;0.70;;
52508;SDS011;38420;53.150;6.370;2022-09-28T12:07:12;1.02;;;0.30;;
52508;SDS011;38420;53.150;6.370;2022-09-28T12:09:53;0.95;;;0.30;;
52508;SDS011;38420;53.150;6.370;2022-09-28T12:12:34;0.95;;;0.50;;
52508;SDS011;38420;53.150;6.370;2022-09-28T12:15:10;0.32;;;0.20;;
52508;SDS011;38420;53.150;6.370;2022-09-28T12:25:41;1.17;;;0.30;;
52508;SDS011;38420;53.150;6.370;2022-09-28T12:28:18;1.42;;;0.20;;
52508;SDS011;38420;53.150;6.370;2022-09-28T12:31:28;1.25;;;0.40;;
52508;SDS011;38420;53.150;6.370;2022-09-28T12:33:59;0.77;;;0.25;;
52508;SDS011;38420;53.150;6.370;2022-09-28T12:42:49;0.63;;;0.32;;
52508;SDS011;38420;53.150;6.370;2022-09-28T12:50:39;0.77;;;0.25;;
52508;SDS011;38420;53.150;6.370;2022-09-28T12:58:55;2.00;;;0.60;;
52508;SDS011;38420;53.150;6.370;2022-09-28T13:09:58;1.80;;;0.40;;
52508;SDS011;38420;53.150;6.370;2022-09-28T13:12:56;2.03;;;1.17;;
52508;SDS011;38420;53.150;6.370;2022-09-28T13:15:41;2.03;;;0.60;;
52508;SDS011;38420;53.150;6.370;2022-09-28T13:18:33;1.00;;;0.43;;
52508;SDS011;38420;53.150;6.370;2022-09-28T13:23:42;1.15;;;0.50;;
52508;SDS011;38420;53.150;6.370;2022-09-28T13:26:11;1.27;;;0.40;;
52508;SDS011;38420;53.150;6.370;2022-09-28T13:28:43;1.45;;;0.30;;
52508;SDS011;38420;53.150;6.370;2022-09-28T13:31:10;2.22;;;0.30;;
52508;SDS011;38420;53.150;6.370;2022-09-28T13:33:41;0.65;;;0.20;;
52508;SDS011;38420;53.150;6.370;2022-09-28T13:38:56;1.60;;;0.45;;
52508;SDS011;38420;53.150;6.370;2022-09-28T13:49:23;2.35;;;0.35;;
52508;SDS011;38420;53.150;6.370;2022-09-28T13:57:28;3.55;;;0.50;;
52508;SDS011;38420;53.150;6.370;2022-09-28T14:10:48;2.80;;;0.77;;
52508;SDS011;38420;53.150;6.370;2022-09-28T14:18:58;0.20;;;0.20;;
52508;SDS011;38420;53.150;6.370;2022-09-28T14:21:37;1.17;;;0.50;;
52508;SDS011;38420;53.150;6.370;2022-09-28T14:32:39;1.15;;;0.20;;
52508;SDS011;38420;53.150;6.370;2022-09-28T14:36:19;0.50;;;0.20;;
52508;SDS011;38420;53.150;6.370;2022-09-28T14:38:11;0.47;;;0.40;;
52508;SDS011;38420;53.150;6.370;2022-09-28T14:43:35;1.05;;;0.40;;
52508;SDS011;38420;53.150;6.370;2022-09-28T14:46:25;1.17;;;0.30;;
52508;SDS011;38420;53.150;6.370;2022-09-28T14:54:04;1.73;;;0.40;;
52508;SDS011;38420;53.150;6.370;2022-09-28T14:59:11;5.40;;;0.40;;
52508;SDS011;38420;53.150;6.370;2022-09-28T15:04:56;1.73;;;0.38;;
52508;SDS011;38420;53.150;6.370;2022-09-28T15:07:43;2.45;;;0.60;;
52508;SDS011;38420;53.150;6.370;2022-09-28T15:12:56;1.27;;;0.40;;
52508;SDS011;38420;53.150;6.370;2022-09-28T15:18:01;0.73;;;0.40;;
52508;SDS011;38420;53.150;6.370;2022-09-28T15:20:41;1.08;;;0.40;;
52508;SDS011;38420;53.150;6.370;2022-09-28T15:23:53;3.80;;;1.35;;
52508;SDS011;38420;53.150;6.370;2022-09-28T15:29:13;1.73;;;0.57;;
52508;SDS011;38420;53.150;6.370;2022-09-28T15:31:43;2.83;;;0.40;;
52508;SDS011;38420;53.150;6.370;2022-09-28T15:37:15;1.00;;;0.40;;
52508;SDS011;38420;53.150;6.370;2022-09-28T15:39:50;1.92;;;0.45;;
52508;SDS011;38420;53.150;6.370;2022-09-28T15:42:17;2.45;;;1.08;;
52508;SDS011;38420;53.150;6.370;2022-09-28T15:47:38;0.90;;;0.50;;
52508;SDS011;38420;53.150;6.370;2022-09-28T15:50:19;11.33;;;1.17;;
52508;SDS011;38420;53.150;6.370;2022-09-28T15:52:55;1.13;;;0.63;;
52508;SDS011;38420;53.150;6.370;2022-09-28T15:55:27;2.35;;;0.80;;
52508;SDS011;38420;53.150;6.370;2022-09-28T16:00:42;1.70;;;0.65;;
52508;SDS011;38420;53.150;6.370;2022-09-28T16:05:51;1.00;;;0.57;;
52508;SDS011;38420;53.150;6.370;2022-09-28T16:08:43;1.05;;;0.43;;
52508;SDS011;38420;53.150;6.370;2022-09-28T16:16:13;1.20;;;0.80;;
52508;SDS011;38420;53.150;6.370;2022-09-28T16:18:40;0.95;;;0.68;;
52508;SDS011;38420;53.150;6.370;2022-09-28T16:23:51;2.00;;;1.00;;
52508;SDS011;38420;53.150;6.370;2022-09-28T16:26:30;1.90;;;0.75;;
52508;SDS011;38420;53.150;6.370;2022-09-28T16:28:57;1.02;;;0.85;;
52508;SDS011;38420;53.150;6.370;2022-09-28T16:31:28;2.30;;;1.10;;
52508;SDS011;38420;53.150;6.370;2022-09-28T16:34:17;1.30;;;1.20;;
52508;SDS011;38420;53.150;6.370;2022-09-28T16:36:47;1.70;;;1.25;;
52508;SDS011;38420;53.150;6.370;2022-09-28T16:39:14;3.20;;;1.30;;
52508;SDS011;38420;53.150;6.370;2022-09-28T16:41:42;2.63;;;1.30;;
52508;SDS011;38420;53.150;6.370;2022-09-28T16:44:21;5.18;;;2.38;;
52508;SDS011;38420;53.150;6.370;2022-09-28T16:46:52;4.40;;;2.88;;
52508;SDS011;38420;53.150;6.370;2022-09-28T16:49:21;6.70;;;3.70;;
52508;SDS011;38420;53.150;6.370;2022-09-28T16:51:49;4.38;;;1.90;;
52508;SDS011;38420;53.150;6.370;2022-09-28T16:54:16;3.67;;;1.83;;
52508;SDS011;38420;53.150;6.370;2022-09-28T16:57:02;3.70;;;1.65;;
52508;SDS011;38420;53.150;6.370;2022-09-28T16:59:29;10.23;;;6.43;;
52508;SDS011;38420;53.150;6.370;2022-09-28T17:01:55;7.75;;;4.93;;
52508;SDS011;38420;53.150;6.370;2022-09-28T17:04:21;12.35;;;7.45;;
52508;SDS011;38420;53.150;6.370;2022-09-28T17:06:48;6.72;;;4.40;;
52508;SDS011;38420;53.150;6.370;2022-09-28T17:09:15;8.15;;;3.70;;
52508;SDS011;38420;53.150;6.370;2022-09-28T17:11:40;3.10;;;2.42;;
52508;SDS011;38420;53.150;6.370;2022-09-28T17:14:06;3.75;;;2.63;;
52508;SDS011;38420;53.150;6.370;2022-09-28T17:16:32;4.32;;;2.13;;
52508;SDS011;38420;53.150;6.370;2022-09-28T17:18:59;3.72;;;2.15;;
52508;SDS011;38420;53.150;6.370;2022-09-28T17:21:25;4.47;;;2.40;;
52508;SDS011;38420;53.150;6.370;2022-09-28T17:23:51;3.80;;;2.42;;
52508;SDS011;38420;53.150;6.370;2022-09-28T17:26:18;3.78;;;2.25;;
52508;SDS011;38420;53.150;6.370;2022-09-28T17:28:44;4.70;;;1.95;;
52508;SDS011;38420;53.150;6.370;2022-09-28T17:31:11;3.83;;;2.35;;
52508;SDS011;38420;53.150;6.370;2022-09-28T17:33:39;4.85;;;2.40;;
52508;SDS011;38420;53.150;6.370;2022-09-28T17:36:05;6.15;;;3.78;;
52508;SDS011;38420;53.150;6.370;2022-09-28T17:38:31;4.32;;;3.30;;
52508;SDS011;38420;53.150;6.370;2022-09-28T17:40:58;6.00;;;2.97;;
52508;SDS011;38420;53.150;6.370;2022-09-28T17:43:23;5.15;;;3.35;;
52508;SDS011;38420;53.150;6.370;2022-09-28T17:45:49;4.18;;;3.22;;
52508;SDS011;38420;53.150;6.370;2022-09-28T17:48:15;4.53;;;2.70;;
52508;SDS011;38420;53.150;6.370;2022-09-28T17:50:46;2.88;;;1.83;;
52508;SDS011;38420;53.150;6.370;2022-09-28T17:53:12;14.45;;;5.78;;
52508;SDS011;38420;53.150;6.370;2022-09-28T17:55:38;6.07;;;2.80;;
52508;SDS011;38420;53.150;6.370;2022-09-28T17:58:17;3.50;;;2.53;;
52508;SDS011;38420;53.150;6.370;2022-09-28T18:00:45;4.07;;;2.60;;
52508;SDS011;38420;53.150;6.370;2022-09-28T18:03:13;3.15;;;2.35;;
52508;SDS011;38420;53.150;6.370;2022-09-28T18:05:40;4.70;;;2.50;;
52508;SDS011;38420;53.150;6.370;2022-09-28T18:08:11;5.00;;;2.70;;
52508;SDS011;38420;53.150;6.370;2022-09-28T18:10:39;3.42;;;2.35;;
52508;SDS011;38420;53.150;6.370;2022-09-28T18:13:05;5.22;;;2.70;;
52508;SDS011;38420;53.150;6.370;2022-09-28T18:15:31;3.28;;;2.30;;
52508;SDS011;38420;53.150;6.370;2022-09-28T18:17:56;4.07;;;2.35;;
52508;SDS011;38420;53.150;6.370;2022-09-28T18:20:22;5.32;;;2.80;;
52508;SDS011;38420;53.150;6.370;2022-09-28T18:22:47;5.43;;;2.80;;
52508;SDS011;38420;53.150;6.370;2022-09-28T18:25:13;3.67;;;2.60;;
52508;SDS011;38420;53.150;6.370;2022-09-28T18:27:39;4.68;;;2.78;;
52508;SDS011;38420;53.150;6.370;2022-09-28T18:30:04;3.45;;;2.38;;